Time;durP1;ratioP1;P1;durP2;ratioP2;P2;SDS_P1;SDS_P2;PMS_P1;PMS_P2;Temp;Humidity;BMP_temperature;BMP_pressure;BME280_temperature;BME280_humidity;BME280_pressure;Samples;Min_cycle;Max_cycle;Signal;HPM_P1;HPM_P2
2022/08/31 00:05:39;;;;;;;2.80;2.60;;;;;;;17.46;61.05;101389.50;5078571;28;20244;-28
2022/08/31 00:08:05;;;;;;;3.03;2.72;;;;;;;17.42;60.92;101390.50;5065423;28;20020;-28
2022/08/31 00:10:31;;;;;;;2.97;2.78;;;;;;;17.42;61.05;101385.16;5087072;28;20028;-28
2022/08/31 00:12:56;;;;;;;3.28;3.05;;;;;;;17.40;61.24;101382.53;5072150;28;20020;-28
2022/08/31 00:15:24;;;;;;;2.65;2.45;;;;;;;17.40;61.39;101387.00;5079582;28;20357;-28
2022/08/31 00:17:50;;;;;;;3.65;2.80;;;;;;;17.40;61.43;101384.31;5071549;28;20058;-28
2022/08/31 00:20:17;;;;;;;2.92;2.72;;;;;;;17.39;61.63;101383.47;5073796;28;20380;-28
2022/08/31 00:22:42;;;;;;;3.00;2.80;;;;;;;17.39;61.55;101382.56;5052889;28;20100;-28
2022/08/31 00:25:08;;;;;;;2.65;2.45;;;;;;;17.38;61.36;101386.16;5054922;28;20171;-28
2022/08/31 00:27:34;;;;;;;3.83;3.53;;;;;;;17.38;61.50;101378.16;5079715;28;20020;-28
2022/08/31 00:29:59;;;;;;;2.90;2.65;;;;;;;17.35;61.57;101380.91;5063921;28;20060;-28
2022/08/31 00:32:24;;;;;;;3.45;3.15;;;;;;;17.38;61.59;101373.72;5071303;28;20031;-28
2022/08/31 00:34:51;;;;;;;3.92;3.55;;;;;;;17.37;61.74;101376.44;5080095;28;20032;-28
2022/08/31 00:37:16;;;;;;;3.53;3.08;;;;;;;17.38;61.42;101372.84;5080308;28;20487;-28
2022/08/31 00:39:42;;;;;;;3.92;2.88;;;;;;;17.41;62.17;101376.28;5074099;28;20031;-28
2022/08/31 00:42:07;;;;;;;3.55;3.30;;;;;;;17.38;62.04;101371.06;5074947;28;20029;-27
2022/08/31 00:44:33;;;;;;;2.67;2.47;;;;;;;17.38;61.79;101365.72;5067330;28;20051;-28
2022/08/31 00:46:58;;;;;;;3.15;2.95;;;;;;;17.38;62.25;101372.84;5068339;28;20062;-28
2022/08/31 00:49:26;;;;;;;2.95;2.75;;;;;;;17.39;61.93;101363.91;5070088;28;20074;-28
2022/08/31 00:51:55;;;;;;;3.13;2.83;;;;;;;17.38;61.74;101372.84;5066648;28;20117;-28
2022/08/31 00:54:25;;;;;;;3.60;3.30;;;;;;;17.35;61.63;101364.91;5066819;28;20107;-28
2022/08/31 00:56:50;;;;;;;3.50;3.20;;;;;;;17.35;62.05;101363.13;5089326;28;20056;-28
2022/08/31 00:59:18;;;;;;;3.33;2.70;;;;;;;17.38;62.08;101362.16;5069114;28;20106;-28
2022/08/31 01:01:43;;;;;;;3.42;2.92;;;;;;;17.40;62.17;101371.00;5070140;28;20051;-28
2022/08/31 01:04:10;;;;;;;3.17;2.95;;;;;;;17.37;61.84;101371.09;5071433;28;20457;-28
2022/08/31 01:06:38;;;;;;;3.33;3.13;;;;;;;17.37;61.90;101369.28;5067265;28;20112;-28
2022/08/31 01:09:05;;;;;;;3.42;3.03;;;;;;;17.36;61.91;101374.66;5057059;28;20024;-28
2022/08/31 01:11:31;;;;;;;3.60;3.30;;;;;;;17.36;61.92;101374.66;5082334;28;20028;-28
2022/08/31 01:13:56;;;;;;;3.30;3.08;;;;;;;17.38;62.29;101380.84;5085507;28;20086;-28
2022/08/31 01:16:37;;;;;;;3.42;3.03;;;;;;;17.36;61.98;101374.66;5059130;28;20023;-28
2022/08/31 01:19:05;;;;;;;3.05;2.85;;;;;;;17.35;62.21;101373.81;5066180;28;20384;-28
2022/08/31 01:22:11;;;;;;;3.70;3.40;;;;;;;17.38;62.36;101375.50;5065406;28;20549;-28
2022/08/31 01:24:39;;;;;;;3.08;2.88;;;;;;;17.33;61.96;101367.63;5071873;28;20491;-28
2022/08/31 01:27:07;;;;;;;3.58;3.28;;;;;;;17.35;62.01;101372.91;5075397;28;20024;-28
2022/08/31 01:29:34;;;;;;;3.72;3.42;;;;;;;17.38;62.47;101373.72;5063514;28;20024;-28
2022/08/31 01:32:00;;;;;;;3.10;2.90;;;;;;;17.38;62.25;101370.16;5065567;28;20525;-28
2022/08/31 01:34:28;;;;;;;3.58;3.28;;;;;;;17.32;61.90;101373.88;5083034;28;20031;-28
2022/08/31 01:36:54;;;;;;;3.33;3.03;;;;;;;17.34;61.98;101373.84;5076583;28;20024;-28
2022/08/31 01:39:20;;;;;;;3.35;3.08;;;;;;;17.35;62.26;101372.91;5063735;28;20025;-28
2022/08/31 01:41:45;;;;;;;3.75;3.45;;;;;;;17.34;61.93;101377.34;5067613;28;20534;-27
2022/08/31 01:44:13;;;;;;;3.35;3.15;;;;;;;17.33;61.89;101377.44;5073993;28;20084;-28
2022/08/31 01:46:39;;;;;;;3.35;3.05;;;;;;;17.30;62.22;101381.91;5064597;28;20028;-28
2022/08/31 01:49:04;;;;;;;3.35;3.05;;;;;;;17.34;61.94;101381.84;5087641;28;20039;-28
2022/08/31 01:51:29;;;;;;;3.30;3.00;;;;;;;17.31;62.30;101381.00;5077204;28;20020;-28
2022/08/31 01:53:55;;;;;;;2.90;2.70;;;;;;;17.30;62.14;101387.25;5088678;28;20028;-28
2022/08/31 01:56:24;;;;;;;3.17;2.88;;;;;;;17.34;62.13;101384.50;5069612;28;20028;-28
2022/08/31 01:58:50;;;;;;;3.90;3.50;;;;;;;17.30;62.17;101376.56;5070753;28;20399;-28
2022/08/31 02:01:16;;;;;;;3.35;3.10;;;;;;;17.34;62.12;101376.50;5075980;28;20035;-28
2022/08/31 02:03:41;;;;;;;2.92;2.67;;;;;;;17.29;62.01;101380.16;5080563;28;20024;-28
2022/08/31 02:06:11;;;;;;;3.60;3.20;;;;;;;17.33;62.48;101378.28;5081002;28;20023;-28
2022/08/31 02:08:36;;;;;;;3.15;2.90;;;;;;;17.34;62.54;101373.84;5086208;28;20038;-28
2022/08/31 02:11:03;;;;;;;3.53;3.22;;;;;;;17.28;62.47;101378.41;5065455;28;20028;-28
2022/08/31 02:13:28;;;;;;;3.15;2.88;;;;;;;17.26;62.58;101376.69;5077399;28;20024;-28
2022/08/31 02:15:54;;;;;;;3.45;3.20;;;;;;;17.27;62.67;101384.66;5068229;28;20073;-28
2022/08/31 02:18:19;;;;;;;3.33;3.03;;;;;;;17.27;63.06;101376.66;5073874;28;20415;-28
2022/08/31 02:20:44;;;;;;;3.47;3.17;;;;;;;17.25;62.69;101381.16;5069337;28;20028;-28
2022/08/31 02:23:10;;;;;;;5.38;3.20;;;;;;;17.23;62.86;101374.97;5088236;28;20027;-28
2022/08/31 02:25:35;;;;;;;4.45;3.45;;;;;;;17.25;62.81;101378.50;5070282;28;20028;-28
2022/08/31 02:28:00;;;;;;;2.83;2.63;;;;;;;17.27;62.30;101383.78;5081605;28;20445;-28
2022/08/31 02:30:26;;;;;;;3.67;3.30;;;;;;;17.26;62.69;101377.56;5069404;28;20056;-28
2022/08/31 02:32:57;;;;;;;3.65;3.33;;;;;;;17.24;62.51;101371.41;5075803;28;20028;-28
2022/08/31 02:35:23;;;;;;;3.20;2.92;;;;;;;17.23;62.31;101367.00;5086617;28;20027;-28
2022/08/31 02:37:48;;;;;;;4.53;2.88;;;;;;;17.26;62.99;101368.69;5065342;28;20032;-28
2022/08/31 02:40:13;;;;;;;2.78;2.58;;;;;;;17.21;62.75;101366.16;5063772;28;20501;-28
2022/08/31 02:42:39;;;;;;;3.33;3.08;;;;;;;17.17;62.95;101365.34;5098151;28;20017;-28
2022/08/31 02:45:05;;;;;;;3.60;2.72;;;;;;;17.21;62.76;101355.50;5071607;28;20372;-28
2022/08/31 02:47:31;;;;;;;3.35;2.92;;;;;;;17.20;62.56;101359.06;5084910;28;20024;-27
2022/08/31 02:49:57;;;;;;;3.65;3.25;;;;;;;17.17;62.94;101360.03;5075922;28;20036;-28
2022/08/31 02:52:22;;;;;;;5.72;2.70;;;;;;;17.17;63.17;101354.69;5060101;28;20112;-29
2022/08/31 02:54:47;;;;;;;3.00;2.80;;;;;;;17.18;63.01;101359.09;5065672;28;20162;-29
2022/08/31 02:57:13;;;;;;;3.25;2.92;;;;;;;17.16;63.14;101360.06;5067388;28;20024;-28
2022/08/31 02:59:41;;;;;;;3.17;2.72;;;;;;;17.18;63.30;101360.91;5067240;28;20028;-27
2022/08/31 03:02:09;;;;;;;3.67;3.38;;;;;;;17.17;63.25;101362.69;5066857;28;20043;-28
2022/08/31 03:04:34;;;;;;;3.20;3.00;;;;;;;17.18;63.52;101371.56;5087934;28;20029;-28
2022/08/31 03:07:09;;;;;;;2.83;2.63;;;;;;;17.14;63.17;101364.56;5066272;28;20047;-28
2022/08/31 03:09:34;;;;;;;3.28;2.97;;;;;;;17.14;63.41;101362.75;5099616;28;20452;-28
2022/08/31 03:12:03;;;;;;;3.50;3.20;;;;;;;17.10;63.44;101363.75;5066547;28;20586;-28
2022/08/31 03:14:28;;;;;;;3.00;2.72;;;;;;;17.11;63.72;101369.97;5073374;28;20020;-28
2022/08/31 03:16:59;;;;;;;3.30;3.00;;;;;;;17.12;63.28;101369.06;5081585;28;20116;-28
2022/08/31 03:19:25;;;;;;;2.90;2.70;;;;;;;17.10;63.24;101368.25;5058658;28;20115;-30
2022/08/31 03:21:50;;;;;;;2.72;2.50;;;;;;;17.10;63.29;101371.75;5053906;28;20055;-29
2022/08/31 03:24:20;;;;;;;3.00;2.80;;;;;;;17.11;63.08;101360.16;5053801;28;20060;-30
2022/08/31 03:26:45;;;;;;;2.70;2.50;;;;;;;17.10;62.95;101369.09;5054399;28;20036;-30
2022/08/31 03:29:10;;;;;;;3.00;2.80;;;;;;;17.09;63.06;101367.34;5062328;28;20028;-30
2022/08/31 03:31:38;;;;;;;2.70;2.50;;;;;;;17.10;63.29;101365.56;5063401;28;20386;-30
2022/08/31 03:34:10;;;;;;;3.20;2.92;;;;;;;17.07;63.04;101368.31;5064572;28;20034;-30
2022/08/31 03:36:35;;;;;;;3.97;2.80;;;;;;;17.08;62.92;101364.72;5063010;28;20424;-30
2022/08/31 03:39:01;;;;;;;3.20;2.90;;;;;;;17.08;63.17;101364.72;5068212;28;20067;-30
2022/08/31 03:41:27;;;;;;;2.95;2.72;;;;;;;17.06;63.36;101372.75;5065283;28;20020;-30
2022/08/31 03:43:52;;;;;;;2.97;2.35;;;;;;;17.07;63.29;101371.81;5071885;28;20376;-30
2022/08/31 03:46:21;;;;;;;3.25;2.70;;;;;;;17.08;63.23;101370.94;5072601;28;20021;-29
2022/08/31 03:48:46;;;;;;;3.15;2.95;;;;;;;17.08;63.06;101370.06;5067384;28;20082;-30
2022/08/31 03:51:13;;;;;;;2.60;2.28;;;;;;;17.05;62.92;101368.31;5064586;28;20033;-29
2022/08/31 03:53:39;;;;;;;2.88;2.67;;;;;;;17.05;63.06;101373.63;5059684;28;20028;-30
2022/08/31 03:56:08;;;;;;;2.72;2.53;;;;;;;17.04;62.95;101366.56;5065375;28;20020;-29
2022/08/31 03:58:34;;;;;;;2.85;2.65;;;;;;;17.03;62.99;101368.34;5075645;28;20285;-29
2022/08/31 04:01:03;;;;;;;2.95;2.75;;;;;;;17.01;62.87;101369.31;5058110;28;20484;-28
2022/08/31 04:03:28;;;;;;;2.65;2.45;;;;;;;17.02;63.25;101369.28;5067244;28;20070;-29
2022/08/31 04:05:53;;;;;;;2.80;2.60;;;;;;;17.04;63.08;101388.75;5075741;28;20073;-29
2022/08/31 04:08:25;;;;;;;3.08;2.83;;;;;;;16.99;63.20;101382.66;5056201;28;20377;-29
2022/08/31 04:10:53;;;;;;;2.72;2.53;;;;;;;16.98;62.98;101380.91;5063159;28;20028;-29
2022/08/31 04:13:19;;;;;;;2.47;2.28;;;;;;;17.00;62.94;101389.72;5071076;28;20032;-29
2022/08/31 04:15:50;;;;;;;2.58;2.38;;;;;;;17.01;62.89;101393.28;5084236;28;20024;-29
2022/08/31 04:18:15;;;;;;;2.10;2.00;;;;;;;16.99;62.91;101393.31;5083124;28;20387;-28
2022/08/31 04:20:41;;;;;;;2.85;2.50;;;;;;;17.00;62.79;101389.72;5066996;28;20024;-28
2022/08/31 04:23:06;;;;;;;2.67;2.47;;;;;;;16.98;62.71;101390.69;5069260;28;20104;-28
2022/08/31 04:25:36;;;;;;;2.45;2.25;;;;;;;16.99;62.77;101382.66;5065911;28;20021;-29
2022/08/31 04:28:02;;;;;;;2.55;2.33;;;;;;;16.99;62.94;101388.00;5072572;28;20028;-29
2022/08/31 04:30:27;;;;;;;3.38;2.42;;;;;;;16.99;63.09;101392.44;5079126;28;20031;-29
2022/08/31 04:32:53;;;;;;;3.00;2.70;;;;;;;16.98;62.83;101391.56;5065715;28;20031;-28
2022/08/31 04:35:18;;;;;;;2.58;2.22;;;;;;;17.00;63.03;101392.41;5056054;28;20259;-29
2022/08/31 04:37:44;;;;;;;2.50;2.30;;;;;;;16.97;63.12;101396.94;5083450;28;20032;-29
2022/08/31 04:40:18;;;;;;;2.72;2.47;;;;;;;16.97;62.97;101394.28;5059494;28;20020;-29
2022/08/31 04:42:47;;;;;;;3.47;2.60;;;;;;;16.96;62.95;101393.38;5070060;28;20032;-28
2022/08/31 04:45:13;;;;;;;2.03;1.92;;;;;;;16.96;63.02;101393.38;5053943;28;20059;-29
2022/08/31 04:47:40;;;;;;;2.70;2.45;;;;;;;16.96;62.89;101393.38;5073322;28;20028;-28
2022/08/31 04:50:11;;;;;;;2.38;2.20;;;;;;;16.96;63.15;101404.03;5063393;28;20072;-29
2022/08/31 04:52:37;;;;;;;2.10;2.00;;;;;;;16.97;62.99;101399.59;5097338;28;20070;-29
2022/08/31 04:55:06;;;;;;;2.97;2.78;;;;;;;16.94;63.18;101395.19;5079421;28;20055;-29
2022/08/31 04:57:34;;;;;;;2.92;2.33;;;;;;;16.94;62.96;101405.84;5045984;28;20032;-29
2022/08/31 05:00:06;;;;;;;2.30;2.10;;;;;;;16.95;63.21;101407.63;5060089;28;20079;-29
2022/08/31 05:02:35;;;;;;;2.15;1.95;;;;;;;16.98;63.46;101406.69;5071088;28;20028;-29
2022/08/31 05:05:01;;;;;;;2.28;2.08;;;;;;;16.94;63.11;101408.53;5070687;28;20032;-29
2022/08/31 05:07:29;;;;;;;2.72;2.53;;;;;;;16.95;63.35;101412.06;5076318;28;20021;-29
2022/08/31 05:09:54;;;;;;;2.63;2.30;;;;;;;16.92;62.98;101413.03;5062986;28;20147;-29
2022/08/31 05:12:19;;;;;;;2.92;2.20;;;;;;;16.93;63.04;101415.66;5056061;28;20108;-29
2022/08/31 05:14:46;;;;;;;1.98;1.75;;;;;;;16.92;63.24;101413.03;5065810;28;20103;-29
2022/08/31 05:17:12;;;;;;;2.88;2.60;;;;;;;16.91;63.30;101411.28;5072885;28;20024;-29
2022/08/31 05:19:38;;;;;;;2.25;2.05;;;;;;;16.91;63.46;101416.63;5064612;28;20429;-29
2022/08/31 05:22:03;;;;;;;2.20;2.00;;;;;;;16.89;63.41;101424.63;5073024;28;20025;-29
2022/08/31 05:24:34;;;;;;;3.13;2.17;;;;;;;16.90;63.59;101425.50;5071639;28;20020;-29
2022/08/31 05:27:06;;;;;;;2.00;1.90;;;;;;;16.92;63.73;101421.03;5072306;28;20025;-29
2022/08/31 05:29:31;;;;;;;2.33;2.13;;;;;;;16.90;63.77;101425.50;5064221;28;20029;-29
2022/08/31 05:31:59;;;;;;;2.70;2.20;;;;;;;16.89;63.90;101429.09;5058493;28;20048;-29
2022/08/31 05:34:25;;;;;;;2.58;2.38;;;;;;;16.89;64.12;101427.31;5057350;28;20028;-29
2022/08/31 05:36:53;;;;;;;2.15;2.05;;;;;;;16.90;63.90;101425.50;5053026;28;20078;-29
2022/08/31 05:39:19;;;;;;;1.95;1.83;;;;;;;16.86;63.79;101423.81;5052884;28;20021;-29
2022/08/31 05:41:45;;;;;;;2.75;2.10;;;;;;;16.86;64.20;101434.47;5053837;28;20070;-29
2022/08/31 05:44:14;;;;;;;2.63;2.42;;;;;;;16.86;64.10;101434.47;5064574;28;20392;-29
2022/08/31 05:46:40;;;;;;;2.75;2.25;;;;;;;16.86;63.98;101434.47;5051514;28;20021;-29
2022/08/31 05:49:09;;;;;;;2.15;1.75;;;;;;;16.85;63.72;101435.41;5052247;28;20096;-29
2022/08/31 05:51:34;;;;;;;2.65;2.15;;;;;;;16.84;63.57;101437.19;5052965;28;20048;-29
2022/08/31 05:54:00;;;;;;;2.28;2.05;;;;;;;16.83;63.81;101440.75;5052241;28;20036;-29
2022/08/31 05:56:25;;;;;;;1.90;1.80;;;;;;;16.83;64.08;101435.44;5054552;28;20036;-29
2022/08/31 05:58:51;;;;;;;1.75;1.65;;;;;;;16.82;63.99;101440.78;5059662;28;20028;-29
2022/08/31 06:01:18;;;;;;;2.90;2.05;;;;;;;16.84;63.79;101437.19;5071405;28;20028;-29
2022/08/31 06:03:43;;;;;;;1.80;1.70;;;;;;;16.87;64.17;101445.09;5071835;28;20029;-29
2022/08/31 06:06:09;;;;;;;4.07;2.10;;;;;;;16.86;64.03;101443.34;5070787;28;20083;-29
2022/08/31 06:08:38;;;;;;;2.17;2.00;;;;;;;16.91;64.30;101443.25;5057999;28;20029;-29
2022/08/31 06:11:05;;;;;;;4.45;2.00;;;;;;;16.92;64.13;101453.00;5065998;28;20030;-29
2022/08/31 06:13:30;;;;;;;2.20;2.00;;;;;;;16.91;63.82;101446.78;5057454;28;20040;-29
2022/08/31 06:15:57;;;;;;;2.20;2.00;;;;;;;16.90;64.14;101447.69;5055701;28;20029;-29
2022/08/31 06:18:22;;;;;;;2.00;1.80;;;;;;;16.95;64.23;101450.25;5055252;28;20063;-29
2022/08/31 06:20:48;;;;;;;2.13;1.92;;;;;;;16.98;64.22;101451.97;5056245;28;20028;-29
2022/08/31 06:23:14;;;;;;;1.60;1.50;;;;;;;17.00;64.41;101453.69;5069257;28;20024;-29
2022/08/31 06:25:39;;;;;;;2.17;1.90;;;;;;;17.00;64.35;101453.69;5067387;28;20086;-29
2022/08/31 06:28:10;;;;;;;1.90;1.80;;;;;;;17.03;64.65;101458.94;5075246;28;20032;-29
2022/08/31 06:30:38;;;;;;;;;;;;;;;17.07;64.48;101467.75;5076712;28;20040;-29
2022/08/31 06:33:06;;;;;;;1.95;1.73;;;;;;;17.06;64.46;101463.34;5073826;28;19913;-29
2022/08/31 06:35:32;;;;;;;2.22;1.98;;;;;;;17.08;63.97;101466.00;5070308;28;20021;-29
2022/08/31 06:37:59;;;;;;;1.90;1.80;;;;;;;17.13;64.36;101456.97;5054673;28;20500;-29
2022/08/31 06:40:25;;;;;;;2.28;2.08;;;;;;;17.13;64.13;101458.75;5070878;28;20063;-28
2022/08/31 06:42:51;;;;;;;2.50;1.98;;;;;;;17.16;64.81;101461.34;5072907;28;20441;-29
2022/08/31 06:45:16;;;;;;;2.20;1.70;;;;;;;17.17;64.75;101465.75;5075301;28;20056;-29
2022/08/31 06:47:41;;;;;;;1.88;1.73;;;;;;;17.19;64.70;101474.59;5075882;28;20085;-29
2022/08/31 06:50:07;;;;;;;1.75;1.65;;;;;;;17.20;64.19;101471.00;5075608;28;20028;-29
2022/08/31 06:52:33;;;;;;;1.90;1.67;;;;;;;17.20;64.41;101471.00;5068993;28;20107;-29
2022/08/31 06:54:58;;;;;;;2.55;1.90;;;;;;;17.20;64.67;101472.81;5063049;28;20109;-29
2022/08/31 06:57:23;;;;;;;2.67;2.08;;;;;;;17.23;64.31;101476.28;5076121;28;20028;-29
2022/08/31 06:59:52;;;;;;;2.03;1.80;;;;;;;17.28;64.54;101473.50;5075647;28;20028;-29
2022/08/31 07:02:18;;;;;;;2.25;1.85;;;;;;;17.27;63.95;101477.09;5076703;28;20029;-29
2022/08/31 07:04:43;;;;;;;2.75;1.70;;;;;;;17.28;63.94;101482.34;5060439;28;20040;-29
2022/08/31 07:07:10;;;;;;;1.75;1.60;;;;;;;17.30;64.01;101483.22;5066849;28;20051;-28
2022/08/31 07:09:38;;;;;;;1.50;1.40;;;;;;;17.29;63.94;101486.81;5071431;28;20044;-29
2022/08/31 07:12:05;;;;;;;3.25;1.88;;;;;;;17.29;63.91;101481.47;5074294;28;20031;-29
2022/08/31 07:14:31;;;;;;;2.22;1.77;;;;;;;17.31;63.84;101495.63;5089411;28;20496;-29
2022/08/31 07:16:57;;;;;;;1.50;1.40;;;;;;;17.30;63.89;101488.53;5074177;28;20028;-29
2022/08/31 07:19:24;;;;;;;1.90;1.70;;;;;;;17.30;63.73;101488.53;5068656;28;20020;-29
2022/08/31 07:21:52;;;;;;;2.47;1.52;;;;;;;17.30;63.98;101491.22;5065215;28;20020;-28
2022/08/31 07:24:23;;;;;;;1.83;1.73;;;;;;;17.33;64.32;101503.59;5068324;28;20029;-29
2022/08/31 07:26:52;;;;;;;2.60;1.90;;;;;;;17.33;63.88;101503.59;5074395;28;20024;-29
2022/08/31 07:29:19;;;;;;;1.60;1.50;;;;;;;17.34;63.80;101504.47;5072918;28;20068;-29
2022/08/31 07:31:46;;;;;;;1.73;1.63;;;;;;;17.35;63.96;101506.22;5073958;28;20030;-29
2022/08/31 07:34:13;;;;;;;2.75;1.77;;;;;;;17.37;63.81;101520.41;5071073;28;20074;-29
2022/08/31 07:42:21;;;;;;;3.90;1.83;;;;;;;17.40;64.01;101513.19;5053198;28;20036;-29
2022/08/31 07:44:48;;;;;;;2.38;1.80;;;;;;;17.41;63.86;101514.94;5052782;28;20481;-29
2022/08/31 07:47:19;;;;;;;1.80;1.70;;;;;;;17.42;63.85;101513.16;5036137;28;20025;-29
2022/08/31 07:49:47;;;;;;;1.63;1.52;;;;;;;17.45;63.77;101518.41;5064633;28;20380;-29
2022/08/31 07:52:15;;;;;;;2.40;1.75;;;;;;;17.46;63.78;101520.16;5072913;28;20033;-29
2022/08/31 07:54:43;;;;;;;1.75;1.65;;;;;;;17.49;63.82;101521.88;5067209;28;20076;-29
2022/08/31 07:57:09;;;;;;;2.00;1.65;;;;;;;17.49;63.78;101514.75;5052872;28;20071;-29
2022/08/31 07:59:36;;;;;;;1.75;1.65;;;;;;;17.53;63.84;101526.22;5060093;28;20020;-29
2022/08/31 08:02:02;;;;;;;1.67;1.58;;;;;;;17.54;63.99;101518.19;5063737;28;20024;-29
2022/08/31 08:04:29;;;;;;;3.25;1.92;;;;;;;17.56;63.97;101511.03;5062068;28;20057;-29
2022/08/31 08:06:56;;;;;;;2.60;2.00;;;;;;;17.59;64.34;101515.41;5054565;28;20028;-29
2022/08/31 08:09:23;;;;;;;2.20;1.75;;;;;;;17.63;64.67;101518.84;5072829;28;20043;-29
2022/08/31 08:11:53;;;;;;;1.88;1.77;;;;;;;17.67;64.59;101517.84;5072816;28;20066;-29
2022/08/31 08:14:18;;;;;;;1.75;1.60;;;;;;;17.71;64.38;101519.56;5072476;28;20032;-29
2022/08/31 08:16:43;;;;;;;2.83;1.67;;;;;;;17.76;64.19;101517.63;5071910;28;20098;-29
2022/08/31 08:19:08;;;;;;;2.03;1.70;;;;;;;17.82;63.85;101520.16;5056762;28;20037;-29
2022/08/31 08:21:34;;;;;;;1.70;1.60;;;;;;;17.88;64.04;101516.47;5052997;28;20028;-29
2022/08/31 08:23:59;;;;;;;1.73;1.63;;;;;;;17.94;63.81;101512.75;5051867;28;20366;-29
2022/08/31 08:26:24;;;;;;;2.25;1.50;;;;;;;17.99;63.82;101513.50;5052485;28;20054;-29
2022/08/31 08:28:50;;;;;;;2.30;1.70;;;;;;;18.05;63.92;101513.34;5055266;28;20115;-29
2022/08/31 08:31:18;;;;;;;3.92;1.95;;;;;;;18.15;63.61;101522.00;5071167;28;20060;-29
2022/08/31 08:33:44;;;;;;;2.13;1.60;;;;;;;18.22;63.12;101522.69;5051706;28;20400;-29
2022/08/31 08:36:10;;;;;;;1.60;1.50;;;;;;;18.30;63.32;101520.69;5051132;28;20020;-29
2022/08/31 08:38:46;;;;;;;2.22;1.50;;;;;;;18.39;62.63;101524.00;5051122;28;20029;-29
2022/08/31 08:41:15;;;;;;;1.73;1.63;;;;;;;18.46;62.59;101528.25;5068586;28;20056;-29
2022/08/31 08:43:44;;;;;;;2.45;1.63;;;;;;;18.54;62.43;101531.56;5069880;28;20028;-29
2022/08/31 08:46:12;;;;;;;2.10;1.80;;;;;;;18.61;62.09;101531.41;5062438;28;20020;-29
2022/08/31 08:48:40;;;;;;;2.25;1.38;;;;;;;18.68;62.00;101532.97;5070996;28;20027;-29
2022/08/31 08:51:12;;;;;;;3.10;1.63;;;;;;;18.76;61.85;101544.31;5072617;28;20020;-29
2022/08/31 08:53:40;;;;;;;1.58;1.25;;;;;;;18.83;61.67;101537.88;5070344;28;20395;-29
2022/08/31 08:56:06;;;;;;;3.38;1.63;;;;;;;18.93;61.81;101543.81;5070526;28;20027;-29
2022/08/31 08:58:34;;;;;;;1.40;1.30;;;;;;;19.00;61.63;101541.81;5060648;28;20032;-29
2022/08/31 09:01:01;;;;;;;1.88;1.63;;;;;;;19.06;61.30;101544.34;5066446;28;20035;-29
2022/08/31 09:03:43;;;;;;;1.52;1.40;;;;;;;19.15;61.28;101542.28;5060607;28;20488;-29
2022/08/31 09:06:35;;;;;;;1.58;1.30;;;;;;;19.28;61.29;101537.44;5070834;28;20033;-29
2022/08/31 09:09:07;;;;;;;1.15;1.15;;;;;;;19.34;61.16;101535.44;5072854;28;20155;-29
2022/08/31 09:11:51;;;;;;;2.53;1.50;;;;;;;19.40;61.13;101534.34;5072137;28;20036;-28
2022/08/31 09:14:35;;;;;;;1.70;1.60;;;;;;;19.53;60.54;101537.50;5069595;28;20396;-29
2022/08/31 09:17:28;;;;;;;2.78;1.45;;;;;;;19.61;60.71;101531.91;5059847;28;20032;-29
2022/08/31 09:20:00;;;;;;;4.30;1.73;;;;;;;19.73;60.29;101527.94;5073443;28;20032;-29
2022/08/31 09:22:27;;;;;;;3.47;1.55;;;;;;;19.86;60.08;101529.25;5072627;28;20100;-29
2022/08/31 09:24:58;;;;;;;1.48;1.38;;;;;;;19.97;59.74;101519.97;5071534;28;20035;-29
2022/08/31 09:27:44;;;;;;;2.10;1.70;;;;;;;20.18;59.91;101522.84;5060619;28;20033;-29
2022/08/31 09:30:10;;;;;;;2.13;1.27;;;;;;;20.24;59.45;101512.78;5050730;28;20040;-29
2022/08/31 09:32:35;;;;;;;1.38;1.10;;;;;;;20.35;59.70;101519.56;5052981;28;20025;-27
2022/08/31 09:35:22;;;;;;;1.30;1.13;;;;;;;20.45;59.38;101514.72;5055475;28;20084;-29
2022/08/31 09:37:57;;;;;;;1.50;1.40;;;;;;;20.49;58.98;101516.34;5056387;28;20029;-29
2022/08/31 09:40:35;;;;;;;1.73;1.63;;;;;;;20.63;58.97;101514.03;5054953;28;20145;-29
2022/08/31 09:43:10;;;;;;;1.27;1.25;;;;;;;20.72;58.83;101509.25;5067202;28;20059;-29
2022/08/31 09:45:38;;;;;;;3.90;1.45;;;;;;;20.89;58.69;101512.19;5054902;28;20116;-29
2022/08/31 09:48:06;;;;;;;1.98;1.60;;;;;;;21.00;57.95;101517.13;5053876;28;20032;-28
2022/08/31 09:50:44;;;;;;;2.67;1.27;;;;;;;21.14;58.01;101508.50;5055307;28;20025;-29
2022/08/31 09:56:13;;;;;;;1.80;1.42;;;;;;;21.22;56.24;101499.28;5067253;28;20063;-28
2022/08/31 09:58:46;;;;;;;1.42;1.38;;;;;;;21.27;57.03;101508.00;5055576;28;20554;-29
2022/08/31 10:01:17;;;;;;;1.73;1.52;;;;;;;21.36;56.76;101501.38;5054755;28;20033;-29
2022/08/31 10:04:01;;;;;;;2.35;1.33;;;;;;;21.46;56.86;101499.19;5053635;28;20468;-29
2022/08/31 10:06:49;;;;;;;1.67;1.30;;;;;;;21.53;56.75;101501.56;5055424;28;20083;-29
2022/08/31 10:09:27;;;;;;;1.95;1.45;;;;;;;21.60;56.30;101494.13;5055169;28;20055;-29
2022/08/31 10:11:53;;;;;;;1.40;1.30;;;;;;;21.59;55.68;101486.13;5059094;28;20020;-29
2022/08/31 10:14:21;;;;;;;2.63;1.10;;;;;;;21.62;55.38;101494.94;5065274;28;20049;-29
2022/08/31 10:16:52;;;;;;;1.33;1.23;;;;;;;21.69;55.16;101498.22;5055056;28;20025;-29
2022/08/31 10:19:27;;;;;;;1.83;1.00;;;;;;;21.75;55.37;101487.25;5053512;28;20070;-28
2022/08/31 10:21:58;;;;;;;1.15;1.05;;;;;;;21.84;54.82;101485.09;5063941;28;20035;-29
2022/08/31 10:24:32;;;;;;;1.73;1.30;;;;;;;21.87;54.50;101479.59;5072702;28;20056;-29
2022/08/31 10:27:28;;;;;;;1.17;1.17;;;;;;;22.02;54.79;101484.28;5065224;28;20426;-29
2022/08/31 10:30:23;;;;;;;2.05;1.38;;;;;;;22.03;55.24;101482.47;5054774;28;20391;-29
2022/08/31 10:33:04;;;;;;;1.13;1.00;;;;;;;22.15;54.73;101483.72;5054346;28;20091;-28
2022/08/31 10:35:53;;;;;;;1.63;1.52;;;;;;;22.22;54.90;101484.31;5070053;28;20431;-29
2022/08/31 10:38:29;;;;;;;1.67;1.52;;;;;;;22.33;54.79;101484.69;5060583;28;20029;-29
2022/08/31 10:41:17;;;;;;;2.50;1.50;;;;;;;22.47;54.18;101497.50;5057632;28;20053;-29
2022/08/31 10:44:22;;;;;;;1.67;1.30;;;;;;;22.49;54.51;101486.66;5052652;28;20464;-28
2022/08/31 10:46:53;;;;;;;2.58;1.33;;;;;;;22.57;54.14;101491.72;5054241;28;20101;-29
2022/08/31 10:49:19;;;;;;;2.55;1.40;;;;;;;22.55;53.93;101491.78;5056230;28;20021;-27
2022/08/31 10:52:08;;;;;;;1.55;1.45;;;;;;;22.57;53.82;101486.34;5055917;28;20021;-29
2022/08/31 10:54:38;;;;;;;1.05;1.00;;;;;;;22.62;54.12;101487.88;5067329;28;20029;-28
2022/08/31 10:57:31;;;;;;;1.48;1.38;;;;;;;22.63;53.29;101486.94;5059240;28;20021;-28
2022/08/31 11:00:01;;;;;;;2.47;1.60;;;;;;;22.68;53.85;101476.81;5052749;28;20036;-29
2022/08/31 11:02:40;;;;;;;1.77;1.30;;;;;;;22.75;53.76;101481.91;5069834;28;20013;-28
2022/08/31 11:05:15;;;;;;;1.92;1.40;;;;;;;22.79;53.70;101478.13;5054044;28;20558;-29
2022/08/31 11:07:49;;;;;;;1.20;1.13;;;;;;;22.78;53.02;101476.41;5056497;28;20448;-28
2022/08/31 11:10:32;;;;;;;1.80;1.38;;;;;;;22.86;53.14;101463.44;5076086;28;20029;-28
2022/08/31 11:13:03;;;;;;;1.65;1.55;;;;;;;22.94;53.23;101465.75;5079625;28;20495;-28
2022/08/31 11:15:47;;;;;;;1.40;1.27;;;;;;;22.94;52.56;101463.06;5085863;28;20048;-28
2022/08/31 11:18:59;;;;;;;1.35;1.25;;;;;;;23.06;52.77;101464.28;5053415;28;20036;-28
2022/08/31 11:21:36;;;;;;;1.70;1.30;;;;;;;23.23;52.81;101466.13;5054115;28;20020;-28
2022/08/31 11:24:14;;;;;;;1.42;1.33;;;;;;;23.26;51.34;101465.09;5053699;28;20494;-28
2022/08/31 11:26:59;;;;;;;1.90;1.35;;;;;;;23.40;51.81;101470.69;5053575;28;20044;-28
2022/08/31 11:29:45;;;;;;;2.00;1.30;;;;;;;23.43;51.23;101470.53;5052052;28;20048;-28
2022/08/31 11:32:17;;;;;;;2.83;1.30;;;;;;;23.50;50.93;101457.63;5052724;28;20025;-28
2022/08/31 11:34:52;;;;;;;2.58;1.70;;;;;;;23.56;51.31;101457.31;5053011;28;20021;-28
2022/08/31 11:37:54;;;;;;;1.38;1.27;;;;;;;23.56;50.90;101442.97;5061549;28;20024;-29
2022/08/31 11:40:40;;;;;;;1.65;1.55;;;;;;;23.62;50.75;101452.56;5062700;28;20025;-29
2022/08/31 11:43:06;;;;;;;1.38;1.27;;;;;;;23.65;50.82;101452.41;5061676;28;20047;-29
2022/08/31 11:45:34;;;;;;;1.95;1.38;;;;;;;23.64;50.54;101443.44;5069740;28;20047;-29
2022/08/31 11:48:00;;;;;;;3.22;1.50;;;;;;;23.65;50.52;101439.81;5065984;28;20538;-28